createdAt,value
2024-04-25T00:01:34.705Z,9.80
2024-04-25T00:04:05.164Z,10.05
2024-04-25T00:06:33.017Z,10.73
2024-04-25T00:09:03.665Z,13.48
2024-04-25T00:11:34.720Z,9.40
2024-04-25T00:14:08.217Z,11.82
2024-04-25T00:16:38.839Z,13.32
2024-04-25T00:19:09.513Z,11.63
2024-04-25T00:21:40.364Z,11.40
2024-04-25T00:24:10.898Z,11.15
2024-04-25T00:26:41.685Z,10.50
2024-04-25T00:29:15.548Z,11.60
2024-04-25T00:31:46.480Z,12.10
2024-04-25T00:34:17.096Z,12.05
2024-04-25T00:36:48.333Z,11.05
2024-04-25T00:39:19.077Z,11.85
2024-04-25T00:41:49.815Z,10.05
2024-04-25T00:44:23.918Z,13.55
2024-04-25T00:46:55.264Z,11.95
2024-04-25T00:49:26.921Z,10.68
2024-04-25T00:51:58.798Z,10.95
2024-04-25T00:54:29.748Z,12.27
2024-04-25T00:57:04.234Z,13.57
2024-04-25T00:59:40.498Z,10.90
2024-04-25T01:02:13.402Z,13.27
2024-04-25T01:04:45.864Z,11.73
2024-04-25T01:07:17.798Z,11.52
2024-04-25T01:09:48.626Z,14.13
2024-04-25T01:12:19.603Z,12.95
2024-04-25T01:14:52.874Z,11.85
2024-04-25T01:17:23.640Z,12.82
2024-04-25T01:19:54.232Z,12.52
2024-04-25T01:22:25.278Z,13.05
2024-04-25T01:24:59.377Z,12.82
2024-04-25T01:27:30.630Z,14.55
2024-04-25T01:30:02.301Z,15.25
2024-04-25T01:32:34.304Z,14.18
2024-04-25T01:35:06.877Z,14.60
2024-04-25T01:37:38.272Z,13.88
2024-04-25T01:40:13.081Z,13.15
2024-04-25T01:42:43.727Z,12.93
2024-04-25T01:45:14.346Z,13.60
2024-04-25T01:47:45.060Z,12.88
2024-04-25T01:50:15.847Z,15.05
2024-04-25T01:52:46.452Z,12.85
2024-04-25T01:55:19.731Z,14.48
2024-04-25T01:57:52.811Z,11.68
2024-04-25T02:00:23.350Z,17.55
2024-04-25T02:02:54.181Z,14.43
2024-04-25T02:05:24.940Z,13.23
2024-04-25T02:07:56.101Z,14.30
2024-04-25T02:10:29.458Z,14.32
2024-04-25T02:13:00.020Z,13.73
2024-04-25T02:15:30.885Z,14.48
2024-04-25T02:18:01.615Z,14.18
2024-04-25T02:20:48.462Z,14.48
2024-04-25T02:23:37.378Z,15.18
2024-04-25T02:26:12.406Z,13.90
2024-04-25T02:28:42.987Z,17.80
2024-04-25T02:31:15.383Z,13.77
2024-04-25T02:33:45.900Z,17.05
2024-04-25T02:36:16.540Z,14.65
2024-04-25T02:38:47.013Z,14.02
2024-04-25T02:41:20.453Z,15.38
2024-04-25T02:43:48.314Z,17.13
2024-04-25T02:46:19.046Z,14.48
2024-04-25T02:48:47.347Z,14.23
2024-04-25T02:51:18.048Z,15.68
2024-04-25T02:53:45.906Z,14.43
2024-04-25T02:56:17.892Z,13.60
2024-04-25T02:58:48.298Z,15.55
2024-04-25T03:01:19.028Z,17.73
2024-04-25T03:03:46.838Z,17.20
2024-04-25T03:06:17.624Z,13.27
2024-04-25T03:08:45.887Z,15.68
2024-04-25T03:11:16.486Z,14.98
2024-04-25T03:13:46.734Z,16.20
2024-04-25T03:16:20.554Z,23.42
2024-04-25T03:18:48.502Z,26.27
2024-04-25T03:21:19.244Z,18.83
2024-04-25T03:23:47.182Z,18.10
2024-04-25T03:26:18.094Z,19.27
2024-04-25T03:28:48.783Z,17.27
2024-04-25T03:31:22.072Z,18.38
2024-04-25T03:33:52.808Z,17.13
2024-04-25T03:36:20.912Z,20.02
2024-04-25T03:38:51.746Z,16.20
2024-04-25T03:41:22.599Z,18.30
2024-04-25T03:43:53.269Z,17.92
2024-04-25T03:46:26.473Z,16.85
2024-04-25T03:48:57.033Z,21.27
2024-04-25T03:51:27.709Z,24.65
2024-04-25T03:53:58.248Z,17.85
2024-04-25T03:56:28.712Z,17.92
2024-04-25T03:58:59.647Z,18.92
2024-04-25T04:01:33.039Z,16.95
2024-04-25T04:04:03.698Z,19.27
2024-04-25T04:06:34.517Z,20.92
2024-04-25T04:09:05.034Z,31.45
2024-04-25T04:11:36.120Z,22.30
2024-04-25T04:14:06.915Z,19.38
2024-04-25T04:16:40.191Z,22.80
2024-04-25T04:19:10.874Z,20.67
2024-04-25T04:21:41.498Z,18.60
2024-04-25T04:24:12.434Z,23.00
2024-04-25T04:26:43.113Z,21.38
2024-04-25T04:29:14.391Z,21.40
2024-04-25T04:31:47.862Z,22.58
2024-04-25T04:34:18.700Z,26.75
2024-04-25T04:36:49.470Z,24.15
2024-04-25T04:39:20.198Z,21.55
2024-04-25T04:41:50.770Z,21.38
2024-04-25T04:44:21.349Z,18.25
2024-04-25T04:46:55.351Z,22.08
2024-04-25T04:49:25.904Z,20.35
2024-04-25T04:51:56.610Z,21.05
2024-04-25T04:54:27.286Z,27.42
2024-04-25T04:56:57.850Z,18.27
2024-04-25T04:59:28.319Z,22.83
2024-04-25T05:02:01.691Z,19.73
2024-04-25T05:04:32.282Z,18.98
2024-04-25T05:07:02.826Z,22.02
2024-04-25T05:09:33.395Z,20.15
2024-04-25T05:12:04.496Z,20.60
2024-04-25T05:14:35.252Z,21.35
2024-04-25T05:17:08.599Z,20.88
2024-04-25T05:19:39.173Z,25.15
2024-04-25T05:22:10.002Z,19.80
2024-04-25T05:24:40.687Z,21.42
2024-04-25T05:27:11.429Z,20.27
2024-04-25T05:29:42.231Z,23.75
2024-04-25T05:32:15.398Z,18.73
2024-04-25T05:34:47.133Z,26.40
2024-04-25T05:37:17.852Z,19.00
2024-04-25T05:39:48.514Z,20.45
2024-04-25T05:42:18.919Z,21.05
2024-04-25T05:44:50.952Z,22.83
2024-04-25T05:47:24.334Z,19.40
2024-04-25T05:49:55.238Z,22.25
2024-04-25T05:52:28.470Z,22.17
2024-04-25T05:54:59.220Z,17.23
2024-04-25T05:57:30.414Z,19.50
2024-04-25T06:00:01.041Z,17.13
2024-04-25T06:02:34.501Z,22.45
2024-04-25T06:05:05.422Z,19.75
2024-04-25T06:07:36.567Z,17.23
2024-04-25T06:10:08.266Z,17.58
2024-04-25T06:12:39.277Z,17.02
2024-04-25T06:15:10.295Z,17.42
2024-04-25T06:17:45.976Z,16.23
2024-04-25T06:20:17.959Z,18.75
2024-04-25T06:22:48.977Z,17.63
2024-04-25T06:25:19.966Z,17.67
2024-04-25T06:27:50.815Z,15.60
2024-04-25T06:30:21.544Z,18.02
2024-04-25T06:32:55.554Z,18.25
2024-04-25T06:35:26.218Z,12.55
2024-04-25T06:37:56.824Z,11.77
2024-04-25T06:40:27.789Z,14.38
2024-04-25T06:42:58.210Z,11.02
2024-04-25T06:45:29.226Z,13.45
2024-04-25T06:48:02.797Z,14.45
2024-04-25T06:50:33.504Z,22.95
2024-04-25T06:53:04.509Z,13.32
2024-04-25T06:55:35.588Z,11.98
2024-04-25T06:58:06.629Z,12.98
2024-04-25T07:00:37.342Z,11.65
2024-04-25T07:03:10.694Z,18.73
2024-04-25T07:05:41.620Z,14.55
2024-04-25T07:08:12.479Z,16.50
2024-04-25T07:10:43.216Z,15.05
2024-04-25T07:13:13.879Z,11.82
2024-04-25T07:15:45.516Z,15.20
2024-04-25T07:18:19.091Z,12.52
2024-04-25T07:20:50.267Z,12.80
2024-04-25T07:23:21.120Z,11.60
2024-04-25T07:25:52.327Z,10.25
2024-04-25T07:28:23.338Z,11.32
2024-04-25T07:30:54.126Z,10.05
2024-04-25T07:33:28.234Z,11.93
2024-04-25T07:35:59.081Z,13.52
2024-04-25T07:38:30.624Z,15.00
2024-04-25T07:41:01.464Z,16.42
2024-04-25T07:43:32.165Z,14.73
2024-04-25T07:46:04.522Z,13.95
2024-04-25T07:48:38.080Z,14.25
2024-04-25T07:51:09.272Z,13.40
2024-04-25T07:53:40.625Z,14.52
2024-04-25T07:56:11.712Z,11.88
2024-04-25T07:58:42.911Z,15.75
2024-04-25T08:01:13.830Z,13.00
2024-04-25T08:03:47.638Z,12.55
2024-04-25T08:06:18.278Z,12.25
2024-04-25T08:08:49.493Z,11.27
2024-04-25T08:11:20.540Z,12.45
2024-04-25T08:13:52.833Z,16.50
2024-04-25T08:16:23.939Z,11.73
2024-04-25T08:18:57.661Z,13.57
2024-04-25T08:21:28.404Z,13.00
2024-04-25T08:23:59.258Z,10.68
2024-04-25T08:26:30.204Z,12.18
2024-04-25T08:29:01.326Z,13.52
2024-04-25T08:31:32.171Z,10.98
2024-04-25T08:34:06.274Z,13.90
2024-04-25T08:36:37.207Z,13.85
2024-04-25T08:39:08.234Z,15.70
2024-04-25T08:41:43.695Z,11.60
2024-04-25T08:44:17.142Z,12.65
2024-04-25T08:46:50.115Z,12.50
2024-04-25T08:49:30.733Z,12.38
2024-04-25T08:52:01.821Z,14.95
2024-04-25T08:54:33.524Z,15.63
2024-04-25T08:57:04.638Z,17.52
2024-04-25T08:59:35.535Z,13.18
2024-04-25T09:02:07.285Z,17.35
2024-04-25T09:04:42.714Z,15.70
2024-04-25T09:07:14.250Z,14.65
2024-04-25T09:09:45.075Z,15.63
2024-04-25T09:12:15.809Z,12.77
2024-04-25T09:14:46.756Z,14.15
2024-04-25T09:17:18.865Z,14.30
2024-04-25T09:19:52.526Z,12.30
2024-04-25T09:22:23.490Z,12.32
2024-04-25T09:24:56.022Z,13.60
2024-04-25T09:27:26.840Z,12.70
2024-04-25T09:29:58.220Z,13.13
2024-04-25T09:32:29.977Z,13.57
2024-04-25T09:35:05.478Z,12.70
2024-04-25T09:37:37.501Z,14.73
2024-04-25T09:40:08.616Z,17.00
2024-04-25T09:42:39.850Z,16.33
2024-04-25T09:45:13.680Z,13.48
2024-04-25T09:47:49.793Z,14.57
2024-04-25T09:50:28.076Z,15.68
2024-04-25T09:53:04.055Z,20.67
2024-04-25T09:55:40.890Z,15.25
2024-04-25T09:58:17.870Z,17.83
2024-04-25T10:00:49.289Z,18.55
2024-04-25T10:03:20.872Z,16.55
2024-04-25T10:05:54.317Z,19.80
2024-04-25T10:08:25.429Z,22.42
2024-04-25T10:10:59.034Z,21.00
2024-04-25T10:13:31.943Z,23.58
2024-04-25T10:16:04.754Z,25.83
2024-04-25T10:18:35.611Z,26.33
2024-04-25T10:21:09.413Z,23.52
2024-04-25T10:23:40.377Z,26.13
2024-04-25T10:26:20.282Z,25.95
2024-04-25T10:29:04.488Z,27.88
2024-04-25T10:31:38.295Z,26.02
2024-04-25T10:34:09.932Z,24.60
2024-04-25T10:36:43.571Z,27.13
2024-04-25T10:39:18.601Z,25.80
2024-04-25T10:41:49.722Z,29.25
2024-04-25T10:44:21.066Z,25.63
2024-04-25T10:46:52.483Z,27.63
2024-04-25T10:49:23.326Z,26.52
2024-04-25T10:51:56.722Z,26.50
2024-04-25T10:54:27.566Z,29.00
2024-04-25T10:56:58.469Z,26.45
2024-04-25T10:59:32.568Z,27.48
2024-04-25T11:02:04.154Z,30.17
2024-04-25T11:04:38.343Z,31.17
2024-04-25T11:07:13.875Z,31.55
2024-04-25T11:09:44.618Z,27.85
2024-04-25T11:12:15.995Z,31.10
2024-04-25T11:14:46.732Z,30.17
2024-04-25T11:17:17.625Z,30.30
2024-04-25T11:19:50.690Z,31.75
2024-04-25T11:22:30.956Z,31.65
2024-04-25T11:25:18.609Z,25.20
2024-04-25T11:27:49.674Z,23.23
2024-04-25T11:30:20.673Z,18.00
2024-04-25T11:32:51.430Z,16.45
2024-04-25T11:35:23.673Z,16.88
2024-04-25T11:37:58.824Z,14.80
2024-04-25T11:40:34.980Z,15.38
2024-04-25T11:43:06.249Z,14.60
2024-04-25T11:45:39.095Z,15.00
2024-04-25T11:48:12.244Z,18.63
2024-04-25T11:50:43.316Z,15.82
2024-04-25T11:53:16.516Z,16.83
2024-04-25T11:55:47.327Z,14.63
2024-04-25T11:58:17.815Z,13.35
2024-04-25T12:00:49.897Z,15.73
2024-04-25T12:03:20.915Z,17.50
2024-04-25T12:05:51.862Z,13.75
2024-04-25T12:08:25.204Z,13.05
2024-04-25T12:10:56.170Z,11.73
2024-04-25T12:13:27.166Z,12.93
2024-04-25T12:15:57.638Z,14.70
2024-04-25T12:18:31.920Z,14.60
2024-04-25T12:21:03.317Z,13.95
2024-04-25T12:23:37.359Z,13.13
2024-04-25T12:26:08.144Z,12.70
2024-04-25T12:28:39.609Z,15.05
2024-04-25T12:31:10.448Z,13.63
2024-04-25T12:33:41.793Z,13.63
2024-04-25T12:36:12.608Z,13.65
2024-04-25T12:38:45.832Z,13.40
2024-04-25T12:41:17.074Z,13.50
2024-04-25T12:43:49.873Z,14.10
2024-04-25T12:46:20.670Z,13.73
2024-04-25T12:48:51.369Z,13.68
2024-04-25T12:51:22.020Z,13.52
2024-04-25T12:53:55.728Z,16.25
2024-04-25T12:56:27.480Z,15.35
2024-04-25T12:58:58.106Z,14.43
2024-04-25T13:01:28.847Z,12.68
2024-04-25T13:03:59.459Z,13.38
2024-04-25T13:06:29.891Z,19.20
2024-04-25T13:09:03.314Z,15.98
2024-04-25T13:11:34.581Z,12.77
2024-04-25T13:14:05.423Z,14.13
2024-04-25T13:16:36.545Z,13.25
2024-04-25T13:19:07.321Z,12.93
2024-04-25T13:21:42.340Z,11.13
2024-04-25T13:24:15.881Z,12.30
2024-04-25T13:26:48.431Z,13.48
2024-04-25T13:29:19.022Z,12.13
2024-04-25T13:31:49.518Z,11.90
2024-04-25T13:34:23.315Z,12.73
2024-04-25T13:36:54.626Z,15.73
2024-04-25T13:39:27.855Z,13.95
2024-04-25T13:41:58.472Z,14.50
2024-04-25T13:44:28.828Z,15.13
2024-04-25T13:46:59.862Z,12.60
2024-04-25T13:49:30.705Z,13.90
2024-04-25T13:52:01.438Z,12.88
2024-04-25T13:54:35.352Z,12.98
2024-04-25T13:57:07.343Z,12.55
2024-04-25T13:59:38.073Z,12.88
2024-04-25T14:02:08.961Z,15.20
2024-04-25T14:04:39.598Z,14.27
2024-04-25T14:07:10.633Z,13.30
2024-04-25T14:09:46.577Z,16.77
2024-04-25T14:12:17.142Z,16.70
2024-04-25T14:14:48.008Z,15.18
2024-04-25T14:17:18.769Z,13.38
2024-04-25T14:19:49.313Z,12.73
2024-04-25T14:22:20.207Z,12.13
2024-04-25T14:25:01.756Z,12.85
2024-04-25T14:27:48.135Z,16.08
2024-04-25T14:30:18.832Z,11.35
2024-04-25T14:32:49.535Z,12.82
2024-04-25T14:35:20.332Z,11.57
2024-04-25T14:37:51.184Z,11.15
2024-04-25T14:40:26.697Z,10.60
2024-04-25T14:42:57.262Z,10.70
2024-04-25T14:45:28.169Z,10.63
2024-04-25T14:47:58.847Z,14.05
2024-04-25T14:50:29.278Z,10.98
2024-04-25T14:52:59.719Z,11.98
2024-04-25T14:55:32.915Z,9.85
2024-04-25T14:58:03.467Z,12.60
2024-04-25T15:00:34.018Z,12.18
2024-04-25T15:03:04.859Z,13.63
2024-04-25T15:05:35.355Z,10.98
2024-04-25T15:08:07.601Z,10.48
2024-04-25T15:10:46.047Z,8.90
2024-04-25T15:13:22.242Z,9.45
2024-04-25T15:15:52.886Z,9.88
2024-04-25T15:18:23.528Z,11.88
2024-04-25T15:20:54.219Z,10.38
2024-04-25T15:23:24.836Z,12.95
2024-04-25T15:25:58.498Z,9.95
2024-04-25T15:28:29.069Z,8.25
2024-04-25T15:30:59.627Z,8.20
2024-04-25T15:33:30.327Z,9.10
2024-04-25T15:36:00.884Z,8.32
2024-04-25T15:38:32.231Z,8.95
2024-04-25T15:41:08.606Z,9.82
2024-04-25T15:43:40.560Z,8.80
2024-04-25T15:46:11.735Z,9.02
2024-04-25T15:48:42.399Z,7.40
2024-04-25T15:51:14.023Z,11.05
2024-04-25T15:53:47.544Z,7.38
2024-04-25T15:56:20.787Z,7.20
2024-04-25T15:58:53.886Z,6.55
2024-04-25T16:01:24.209Z,7.57
2024-04-25T16:03:55.457Z,7.47
2024-04-25T16:06:26.061Z,9.35
2024-04-25T16:08:56.925Z,10.65
2024-04-25T16:11:30.291Z,9.73
2024-04-25T16:14:00.783Z,8.85
2024-04-25T16:16:31.244Z,11.20
2024-04-25T16:19:04.456Z,7.63
2024-04-25T16:21:35.754Z,9.77
2024-04-25T16:24:07.446Z,9.73
2024-04-25T16:26:40.774Z,13.80
2024-04-25T16:29:11.453Z,9.73
2024-04-25T16:31:42.032Z,10.25
2024-04-25T16:34:12.565Z,12.35
2024-04-25T16:36:43.161Z,9.55
2024-04-25T16:39:13.656Z,12.25
2024-04-25T16:41:47.003Z,12.35
2024-04-25T16:44:17.597Z,7.80
2024-04-25T16:46:48.080Z,10.93
2024-04-25T16:49:18.867Z,12.23
2024-04-25T16:51:49.688Z,7.53
2024-04-25T16:54:20.120Z,6.80
2024-04-25T16:56:53.237Z,7.70
2024-04-25T16:59:24.025Z,9.05
2024-04-25T17:01:55.181Z,8.27
2024-04-25T17:04:25.534Z,9.00
2024-04-25T17:06:57.931Z,9.45
2024-04-25T17:09:29.080Z,7.53
2024-04-25T17:12:04.428Z,9.07
2024-04-25T17:14:34.994Z,8.10
2024-04-25T17:17:05.633Z,8.20
2024-04-25T17:19:36.136Z,7.55
2024-04-25T17:22:11.145Z,12.73
2024-04-25T17:24:41.671Z,7.68
2024-04-25T17:27:14.991Z,8.43
2024-04-25T17:29:45.417Z,7.50
2024-04-25T17:32:15.793Z,9.80
2024-04-25T17:34:48.712Z,8.90
2024-04-25T17:37:19.564Z,7.82
2024-04-25T17:39:50.615Z,9.20
2024-04-25T17:42:24.487Z,7.68
2024-04-25T17:44:56.884Z,6.63
2024-04-25T17:47:28.641Z,6.70
2024-04-25T17:49:58.151Z,7.57
2024-04-25T17:52:29.108Z,6.70
2024-04-25T17:55:04.507Z,7.30
2024-04-25T17:57:37.724Z,6.97
2024-04-25T18:00:09.091Z,7.35
2024-04-25T18:02:40.640Z,7.60
2024-04-25T18:05:11.138Z,8.63
2024-04-25T18:07:41.588Z,9.90
2024-04-25T18:10:12.474Z,7.55
2024-04-25T18:12:46.785Z,7.00
2024-04-25T18:15:17.478Z,8.00
2024-04-25T18:17:48.045Z,8.38
2024-04-25T18:20:18.722Z,8.80
2024-04-25T18:22:49.197Z,7.85
2024-04-25T18:25:20.410Z,7.35
2024-04-25T18:27:53.619Z,8.15
2024-04-25T18:30:24.089Z,7.47
2024-04-25T18:32:55.262Z,12.15
2024-04-25T18:35:23.432Z,10.70
2024-04-25T18:37:53.847Z,7.68
2024-04-25T18:40:24.481Z,8.07
2024-04-25T18:42:58.778Z,11.30
2024-04-25T18:45:29.321Z,10.52
2024-04-25T18:48:00.101Z,8.70
2024-04-25T18:50:31.276Z,10.18
2024-04-25T18:53:01.725Z,9.57
2024-04-25T18:55:32.044Z,13.13
2024-04-25T18:58:05.294Z,13.25
2024-04-25T19:00:35.757Z,11.32
2024-04-25T19:03:06.679Z,11.50
2024-04-25T19:05:37.296Z,12.13
2024-04-25T19:08:11.269Z,10.90
2024-04-25T19:10:42.102Z,11.50
2024-04-25T19:13:18.179Z,14.55
2024-04-25T19:15:48.664Z,11.15
2024-04-25T19:18:19.537Z,13.05
2024-04-25T19:20:50.281Z,13.38
2024-04-25T19:23:21.032Z,12.48
2024-04-25T19:25:51.788Z,12.05
2024-04-25T19:28:26.766Z,12.80
2024-04-25T19:30:57.358Z,15.23
2024-04-25T19:33:28.155Z,15.82
2024-04-25T19:35:59.202Z,13.32
2024-04-25T19:38:30.620Z,14.93
2024-04-25T19:41:01.468Z,15.07
2024-04-25T19:43:34.520Z,14.85
2024-04-25T19:46:05.063Z,12.98
2024-04-25T19:48:35.624Z,11.68
2024-04-25T19:51:08.253Z,13.82
2024-04-25T19:53:38.810Z,14.05
2024-04-25T19:56:12.496Z,13.75
2024-04-25T19:58:46.651Z,14.75
2024-04-25T20:01:18.110Z,12.38
2024-04-25T20:03:49.195Z,13.85
2024-04-25T20:06:21.622Z,13.02
2024-04-25T20:08:52.281Z,11.68
2024-04-25T20:11:24.651Z,13.70
2024-04-25T20:13:57.813Z,13.30
2024-04-25T20:16:28.329Z,15.75
2024-04-25T20:19:14.257Z,15.23
2024-04-25T20:21:45.301Z,13.15
2024-04-25T20:24:16.045Z,17.20
2024-04-25T20:26:46.506Z,15.98
2024-04-25T20:29:19.867Z,18.42
2024-04-25T20:31:50.440Z,17.73
2024-04-25T20:34:23.343Z,17.35
2024-04-25T20:36:54.092Z,20.77
2024-04-25T20:39:24.629Z,22.77
2024-04-25T20:41:55.630Z,19.13
2024-04-25T20:44:29.031Z,20.35
2024-04-25T20:46:59.743Z,21.60
2024-04-25T20:49:30.387Z,22.35
2024-04-25T20:52:00.797Z,25.55
2024-04-25T20:54:31.296Z,24.02
2024-04-25T20:57:01.859Z,24.30
2024-04-25T20:59:35.221Z,24.42
2024-04-25T21:02:05.762Z,26.15
2024-04-25T21:04:39.084Z,25.52
2024-04-25T21:07:09.593Z,26.45
2024-04-25T21:09:40.208Z,24.42
2024-04-25T21:12:11.398Z,26.60
2024-04-25T21:14:46.669Z,23.77
2024-04-25T21:17:18.390Z,23.20
2024-04-25T21:19:49.273Z,23.77
2024-04-25T21:22:19.718Z,22.63
2024-04-25T21:24:51.956Z,23.75
2024-04-25T21:27:22.213Z,26.75
2024-04-25T21:29:57.828Z,23.38
2024-04-25T21:32:36.272Z,27.35
2024-04-25T21:35:13.602Z,27.17
2024-04-25T21:37:44.332Z,25.48
2024-04-25T21:40:15.487Z,24.70
2024-04-25T21:42:47.438Z,26.10
2024-04-25T21:45:22.867Z,23.13
2024-04-25T21:47:53.508Z,27.92
2024-04-25T21:50:24.295Z,25.92
2024-04-25T21:52:57.418Z,26.65
2024-04-25T21:55:27.936Z,27.13
2024-04-25T21:58:00.959Z,24.92
2024-04-25T22:00:36.400Z,24.80
2024-04-25T22:03:07.417Z,25.77
2024-04-25T22:05:38.079Z,28.58
2024-04-25T22:08:09.081Z,24.23
2024-04-25T22:10:39.531Z,27.45
2024-04-25T22:13:10.051Z,27.85
2024-04-25T22:15:43.018Z,25.83
2024-04-25T22:18:14.204Z,27.45
2024-04-25T22:20:44.726Z,24.20
2024-04-25T22:23:15.453Z,26.23
2024-04-25T22:25:46.120Z,28.10
2024-04-25T22:28:17.939Z,27.63
2024-04-25T22:30:51.046Z,26.65
2024-04-25T22:33:21.624Z,26.00
2024-04-25T22:35:52.441Z,31.08
2024-04-25T22:38:22.945Z,29.00
2024-04-25T22:40:53.180Z,26.98
2024-04-25T22:43:23.555Z,28.92
2024-04-25T22:45:57.108Z,28.45
2024-04-25T22:48:27.700Z,26.85
2024-04-25T22:50:58.251Z,27.00
2024-04-25T22:53:28.822Z,29.00
2024-04-25T22:55:59.163Z,28.27
2024-04-25T22:58:29.512Z,25.42
2024-04-25T23:01:02.582Z,27.88
2024-04-25T23:03:33.816Z,28.50
2024-04-25T23:06:04.666Z,35.92
2024-04-25T23:08:36.411Z,26.40
2024-04-25T23:11:04.135Z,28.30
2024-04-25T23:13:34.582Z,29.85
2024-04-25T23:16:15.904Z,27.95
2024-04-25T23:18:46.650Z,29.67
2024-04-25T23:21:17.089Z,27.65
2024-04-25T23:23:47.467Z,27.25
2024-04-25T23:26:17.848Z,27.70
2024-04-25T23:28:48.697Z,26.60
2024-04-25T23:31:24.080Z,26.25
2024-04-25T23:33:55.003Z,30.70
2024-04-25T23:36:26.604Z,29.63
2024-04-25T23:38:57.982Z,28.83
2024-04-25T23:41:28.486Z,29.02
2024-04-25T23:43:58.792Z,28.98
2024-04-25T23:46:31.928Z,27.67
2024-04-25T23:49:02.728Z,30.63
2024-04-25T23:51:33.144Z,29.08
2024-04-25T23:54:04.130Z,26.80
2024-04-25T23:56:34.770Z,27.85
2024-04-25T23:59:05.583Z,29.35
